sensor_id;sensor_type;location;lat;lon;timestamp;pressure;altitude;pressure_sealevel;temperature;humidity
17764;BME280;22245;52.832;13.816;2023-07-16T00:01:06;100526.25;;;23.72;67.84
17764;BME280;22245;52.832;13.816;2023-07-16T00:04:27;100518.38;;;23.64;69.05
17764;BME280;22245;52.832;13.816;2023-07-16T00:07:49;100515.97;;;23.55;69.65
17764;BME280;22245;52.832;13.816;2023-07-16T00:11:11;100517.28;;;23.46;70.05
17764;BME280;22245;52.832;13.816;2023-07-16T00:14:34;100527.63;;;23.37;70.69
17764;BME280;22245;52.832;13.816;2023-07-16T00:17:56;100538.72;;;23.29;69.82
17764;BME280;22245;52.832;13.816;2023-07-16T00:21:20;100528.53;;;23.24;68.80
17764;BME280;22245;52.832;13.816;2023-07-16T00:24:42;100547.38;;;23.19;68.70
17764;BME280;22245;52.832;13.816;2023-07-16T00:28:03;100552.19;;;23.17;68.46
17764;BME280;22245;52.832;13.816;2023-07-16T00:31:26;100554.28;;;23.15;68.82
17764;BME280;22245;52.832;13.816;2023-07-16T00:34:48;100553.44;;;23.15;68.79
17764;BME280;22245;52.832;13.816;2023-07-16T00:38:10;100549.31;;;23.12;70.02
17764;BME280;22245;52.832;13.816;2023-07-16T00:41:32;100532.59;;;23.08;70.35
17764;BME280;22245;52.832;13.816;2023-07-16T00:44:54;100528.88;;;23.03;70.88
17764;BME280;22245;52.832;13.816;2023-07-16T00:48:18;100531.41;;;22.97;71.64
17764;BME280;22245;52.832;13.816;2023-07-16T00:51:40;100544.19;;;22.90;72.04
17764;BME280;22245;52.832;13.816;2023-07-16T00:55:03;100539.03;;;22.82;72.83
17764;BME280;22245;52.832;13.816;2023-07-16T00:58:25;100552.03;;;22.73;73.68
17764;BME280;22245;52.832;13.816;2023-07-16T01:01:48;100563.94;;;22.65;75.08
17764;BME280;22245;52.832;13.816;2023-07-16T01:05:12;100578.81;;;22.56;74.85
17764;BME280;22245;52.832;13.816;2023-07-16T01:08:38;100580.31;;;22.52;74.81
17764;BME280;22245;52.832;13.816;2023-07-16T01:12:03;100610.34;;;22.50;74.01
17764;BME280;22245;52.832;13.816;2023-07-16T01:15:26;100620.59;;;22.48;74.23
17764;BME280;22245;52.832;13.816;2023-07-16T01:18:48;100618.09;;;22.47;73.81
17764;BME280;22245;52.832;13.816;2023-07-16T01:22:25;100646.91;;;22.48;73.72
17764;BME280;22245;52.832;13.816;2023-07-16T01:26:02;100680.28;;;22.48;73.70
17764;BME280;22245;52.832;13.816;2023-07-16T01:29:33;100693.66;;;22.50;73.24
17764;BME280;22245;52.832;13.816;2023-07-16T01:32:56;100709.53;;;22.53;72.93
17764;BME280;22245;52.832;13.816;2023-07-16T01:36:24;100731.84;;;22.55;72.88
17764;BME280;22245;52.832;13.816;2023-07-16T01:39:45;100770.03;;;22.60;72.45
17764;BME280;22245;52.832;13.816;2023-07-16T01:43:08;100797.19;;;22.67;72.30
17764;BME280;22245;52.832;13.816;2023-07-16T01:46:31;100803.25;;;22.69;73.08
17764;BME280;22245;52.832;13.816;2023-07-16T01:49:54;100815.16;;;22.68;73.91
17764;BME280;22245;52.832;13.816;2023-07-16T01:53:16;100812.63;;;22.66;74.51
17764;BME280;22245;52.832;13.816;2023-07-16T01:56:38;100822.88;;;22.64;75.02
17764;BME280;22245;52.832;13.816;2023-07-16T02:00:00;100830.38;;;22.62;75.95
17764;BME280;22245;52.832;13.816;2023-07-16T02:03:25;100842.50;;;22.60;76.54
17764;BME280;22245;52.832;13.816;2023-07-16T02:06:47;100829.34;;;22.57;78.98
17764;BME280;22245;52.832;13.816;2023-07-16T02:10:13;100833.09;;;22.49;80.18
17764;BME280;22245;52.832;13.816;2023-07-16T02:13:35;100832.25;;;22.41;81.54
17764;BME280;22245;52.832;13.816;2023-07-16T02:16:56;100817.19;;;22.32;81.40
17764;BME280;22245;52.832;13.816;2023-07-16T02:20:20;100816.16;;;22.26;81.56
17764;BME280;22245;52.832;13.816;2023-07-16T02:23:41;100827.63;;;22.22;82.79
17764;BME280;22245;52.832;13.816;2023-07-16T02:27:04;100857.06;;;22.18;82.96
17764;BME280;22245;52.832;13.816;2023-07-16T02:30:26;100838.03;;;22.11;82.59
17764;BME280;22245;52.832;13.816;2023-07-16T02:33:48;100839.72;;;22.12;82.47
17764;BME280;22245;52.832;13.816;2023-07-16T02:37:11;100832.19;;;22.08;82.82
17764;BME280;22245;52.832;13.816;2023-07-16T02:40:33;100845.97;;;22.06;83.07
17764;BME280;22245;52.832;13.816;2023-07-16T02:44:04;100851.56;;;22.05;83.41
17764;BME280;22245;52.832;13.816;2023-07-16T02:47:26;100847.41;;;22.02;84.06
17764;BME280;22245;52.832;13.816;2023-07-16T02:50:48;100845.75;;;22.01;84.18
17764;BME280;22245;52.832;13.816;2023-07-16T02:54:11;100849.50;;;22.00;84.14
17764;BME280;22245;52.832;13.816;2023-07-16T02:57:33;100852.59;;;21.97;84.02
17764;BME280;22245;52.832;13.816;2023-07-16T03:00:55;100834.66;;;21.96;84.82
17764;BME280;22245;52.832;13.816;2023-07-16T03:04:17;100842.16;;;21.94;84.37
17764;BME280;22245;52.832;13.816;2023-07-16T03:07:39;100845.09;;;21.92;84.40
17764;BME280;22245;52.832;13.816;2023-07-16T03:11:02;100839.84;;;21.91;84.63
17764;BME280;22245;52.832;13.816;2023-07-16T03:14:24;100846.31;;;21.90;85.18
17764;BME280;22245;52.832;13.816;2023-07-16T03:17:46;100844.03;;;21.87;85.96
17764;BME280;22245;52.832;13.816;2023-07-16T03:21:08;100849.44;;;21.87;87.04
17764;BME280;22245;52.832;13.816;2023-07-16T03:24:29;100840.03;;;21.82;87.15
17764;BME280;22245;52.832;13.816;2023-07-16T03:27:53;100857.75;;;21.78;87.78
17764;BME280;22245;52.832;13.816;2023-07-16T03:31:15;100839.19;;;21.75;88.04
17764;BME280;22245;52.832;13.816;2023-07-16T03:34:39;100834.19;;;21.72;88.58
17764;BME280;22245;52.832;13.816;2023-07-16T03:38:00;100820.63;;;21.72;88.56
17764;BME280;22245;52.832;13.816;2023-07-16T03:41:22;100810.19;;;21.69;88.41
17764;BME280;22245;52.832;13.816;2023-07-16T03:44:46;100799.53;;;21.67;88.74
17764;BME280;22245;52.832;13.816;2023-07-16T03:48:08;100793.72;;;21.64;88.83
17764;BME280;22245;52.832;13.816;2023-07-16T03:51:35;100793.88;;;21.62;89.63
17764;BME280;22245;52.832;13.816;2023-07-16T03:54:57;100798.84;;;21.59;89.11
17764;BME280;22245;52.832;13.816;2023-07-16T03:58:19;100770.28;;;21.56;89.87
17764;BME280;22245;52.832;13.816;2023-07-16T04:01:42;100756.94;;;21.54;89.78
17764;BME280;22245;52.832;13.816;2023-07-16T04:05:05;100783.63;;;21.51;89.59
17764;BME280;22245;52.832;13.816;2023-07-16T04:08:26;100780.91;;;21.51;90.38
17764;BME280;22245;52.832;13.816;2023-07-16T04:11:48;100770.25;;;21.49;90.64
17764;BME280;22245;52.832;13.816;2023-07-16T04:15:10;100796.72;;;21.47;91.17
17764;BME280;22245;52.832;13.816;2023-07-16T04:18:33;100813.22;;;21.46;91.08
17764;BME280;22245;52.832;13.816;2023-07-16T04:21:55;100813.22;;;21.46;91.05
17764;BME280;22245;52.832;13.816;2023-07-16T04:25:16;100828.59;;;21.45;91.41
17764;BME280;22245;52.832;13.816;2023-07-16T04:28:39;100847.16;;;21.42;90.92
17764;BME280;22245;52.832;13.816;2023-07-16T04:32:01;100857.78;;;21.43;90.57
17764;BME280;22245;52.832;13.816;2023-07-16T04:35:24;100854.03;;;21.44;90.55
17764;BME280;22245;52.832;13.816;2023-07-16T04:38:46;100868.22;;;21.46;90.70
17764;BME280;22245;52.832;13.816;2023-07-16T04:42:08;100861.53;;;21.42;90.77
17764;BME280;22245;52.832;13.816;2023-07-16T04:45:30;100861.13;;;21.45;89.65
17764;BME280;22245;52.832;13.816;2023-07-16T04:48:51;100856.97;;;21.49;89.85
17764;BME280;22245;52.832;13.816;2023-07-16T04:52:15;100856.16;;;21.49;89.89
17764;BME280;22245;52.832;13.816;2023-07-16T04:55:37;100875.75;;;21.51;91.14
17764;BME280;22245;52.832;13.816;2023-07-16T04:58:59;100866.59;;;21.52;90.68
17764;BME280;22245;52.832;13.816;2023-07-16T05:02:21;100875.34;;;21.54;90.92
17764;BME280;22245;52.832;13.816;2023-07-16T05:05:43;100890.56;;;21.55;89.73
17764;BME280;22245;52.832;13.816;2023-07-16T05:09:06;100890.75;;;21.53;89.61
17764;BME280;22245;52.832;13.816;2023-07-16T05:12:27;100906.19;;;21.53;89.93
17764;BME280;22245;52.832;13.816;2023-07-16T05:15:49;100918.88;;;21.52;90.25
17764;BME280;22245;52.832;13.816;2023-07-16T05:19:11;100918.06;;;21.52;90.41
17764;BME280;22245;52.832;13.816;2023-07-16T05:22:33;100914.50;;;21.51;90.36
17764;BME280;22245;52.832;13.816;2023-07-16T05:25:56;100916.41;;;21.51;90.21
17764;BME280;22245;52.832;13.816;2023-07-16T05:29:18;100945.16;;;21.52;91.12
17764;BME280;22245;52.832;13.816;2023-07-16T05:32:40;100964.97;;;21.52;90.21
17764;BME280;22245;52.832;13.816;2023-07-16T05:36:02;100934.09;;;21.53;90.72
17764;BME280;22245;52.832;13.816;2023-07-16T05:39:25;100960.19;;;21.54;90.13
17764;BME280;22245;52.832;13.816;2023-07-16T05:42:48;100953.53;;;21.57;90.68
17764;BME280;22245;52.832;13.816;2023-07-16T05:46:10;100937.28;;;21.57;90.37
17764;BME280;22245;52.832;13.816;2023-07-16T05:49:32;100956.88;;;21.59;90.56
17764;BME280;22245;52.832;13.816;2023-07-16T05:52:54;100946.31;;;21.64;90.13
17764;BME280;22245;52.832;13.816;2023-07-16T05:56:15;100950.50;;;21.67;90.29
17764;BME280;22245;52.832;13.816;2023-07-16T05:59:39;100945.50;;;21.71;89.61
17764;BME280;22245;52.832;13.816;2023-07-16T06:03:01;100946.53;;;21.69;89.24
17764;BME280;22245;52.832;13.816;2023-07-16T06:06:23;100954.50;;;21.78;89.42
17764;BME280;22245;52.832;13.816;2023-07-16T06:09:45;100959.31;;;21.82;89.48
17764;BME280;22245;52.832;13.816;2023-07-16T06:13:07;100947.91;;;21.87;89.56
17764;BME280;22245;52.832;13.816;2023-07-16T06:16:30;100953.53;;;21.92;89.41
17764;BME280;22245;52.832;13.816;2023-07-16T06:19:52;100953.97;;;21.96;89.37
17764;BME280;22245;52.832;13.816;2023-07-16T06:23:14;100958.16;;;21.98;88.04
17764;BME280;22245;52.832;13.816;2023-07-16T06:26:37;100956.53;;;22.04;87.59
17764;BME280;22245;52.832;13.816;2023-07-16T06:29:58;100964.88;;;22.09;87.70
17764;BME280;22245;52.832;13.816;2023-07-16T06:33:22;100961.13;;;22.10;88.44
17764;BME280;22245;52.832;13.816;2023-07-16T06:36:45;100953.63;;;22.12;88.27
17764;BME280;22245;52.832;13.816;2023-07-16T06:40:08;100952.81;;;22.19;87.82
17764;BME280;22245;52.832;13.816;2023-07-16T06:43:29;100959.94;;;22.26;86.55
17764;BME280;22245;52.832;13.816;2023-07-16T06:46:51;100950.13;;;22.32;86.36
17764;BME280;22245;52.832;13.816;2023-07-16T06:50:16;100951.63;;;22.41;85.92
17764;BME280;22245;52.832;13.816;2023-07-16T06:53:37;100957.53;;;22.52;84.82
17764;BME280;22245;52.832;13.816;2023-07-16T06:56:59;100963.19;;;22.57;83.50
17764;BME280;22245;52.832;13.816;2023-07-16T07:00:21;100973.84;;;22.65;82.59
17764;BME280;22245;52.832;13.816;2023-07-16T07:03:43;100970.94;;;22.67;82.23
17764;BME280;22245;52.832;13.816;2023-07-16T07:07:07;100973.84;;;22.65;81.63
17764;BME280;22245;52.832;13.816;2023-07-16T07:10:28;100963.59;;;22.67;81.00
17764;BME280;22245;52.832;13.816;2023-07-16T07:13:51;100979.09;;;22.74;80.36
17764;BME280;22245;52.832;13.816;2023-07-16T07:17:13;100987.63;;;22.77;80.35
17764;BME280;22245;52.832;13.816;2023-07-16T07:20:34;100990.16;;;22.79;79.31
17764;BME280;22245;52.832;13.816;2023-07-16T07:23:57;100992.03;;;22.78;79.50
17764;BME280;22245;52.832;13.816;2023-07-16T07:27:19;100988.28;;;22.79;80.11
17764;BME280;22245;52.832;13.816;2023-07-16T07:30:41;100998.09;;;22.87;80.02
17764;BME280;22245;52.832;13.816;2023-07-16T07:34:03;100991.84;;;22.93;79.85
17764;BME280;22245;52.832;13.816;2023-07-16T07:37:24;101008.56;;;22.97;77.11
17764;BME280;22245;52.832;13.816;2023-07-16T07:40:48;101003.97;;;22.97;77.37
17764;BME280;22245;52.832;13.816;2023-07-16T07:44:10;100997.06;;;23.02;77.06
17764;BME280;22245;52.832;13.816;2023-07-16T07:47:32;101000.41;;;23.04;76.23
17764;BME280;22245;52.832;13.816;2023-07-16T07:50:53;101004.19;;;23.09;76.77
17764;BME280;22245;52.832;13.816;2023-07-16T07:54:15;101009.81;;;23.15;74.10
17764;BME280;22245;52.832;13.816;2023-07-16T07:57:38;101004.38;;;23.15;75.38
17764;BME280;22245;52.832;13.816;2023-07-16T08:01:04;101018.41;;;23.25;74.46
17764;BME280;22245;52.832;13.816;2023-07-16T08:04:26;101019.06;;;23.34;74.72
17764;BME280;22245;52.832;13.816;2023-07-16T08:07:48;101021.13;;;23.45;72.68
17764;BME280;22245;52.832;13.816;2023-07-16T08:11:10;101024.06;;;23.50;71.30
17764;BME280;22245;52.832;13.816;2023-07-16T08:14:33;101018.22;;;23.53;71.10
17764;BME280;22245;52.832;13.816;2023-07-16T08:17:54;101019.66;;;23.63;70.24
17764;BME280;22245;52.832;13.816;2023-07-16T08:21:19;101024.44;;;23.74;68.73
17764;BME280;22245;52.832;13.816;2023-07-16T08:24:40;101035.53;;;23.73;68.90
17764;BME280;22245;52.832;13.816;2023-07-16T08:28:02;101034.50;;;23.67;69.00
17764;BME280;22245;52.832;13.816;2023-07-16T08:31:26;101033.88;;;23.65;69.15
17764;BME280;22245;52.832;13.816;2023-07-16T08:34:48;101040.78;;;23.61;69.03
17764;BME280;22245;52.832;13.816;2023-07-16T08:38:10;101043.50;;;23.61;67.31
17764;BME280;22245;52.832;13.816;2023-07-16T08:41:32;101040.78;;;23.61;65.83
17764;BME280;22245;52.832;13.816;2023-07-16T08:44:54;101051.88;;;23.66;67.06
17764;BME280;22245;52.832;13.816;2023-07-16T08:48:18;101050.38;;;23.77;64.45
17764;BME280;22245;52.832;13.816;2023-07-16T08:51:40;101044.94;;;23.70;62.25
17764;BME280;22245;52.832;13.816;2023-07-16T08:55:04;101043.69;;;23.79;62.36
17764;BME280;22245;52.832;13.816;2023-07-16T08:58:25;101039.47;;;23.83;61.90
17764;BME280;22245;52.832;13.816;2023-07-16T09:01:47;101040.75;;;23.88;62.52
17764;BME280;22245;52.832;13.816;2023-07-16T09:05:11;101038.03;;;24.01;60.30
17764;BME280;22245;52.832;13.816;2023-07-16T09:08:55;101051.19;;;24.11;59.80
17764;BME280;22245;52.832;13.816;2023-07-16T09:12:17;101049.91;;;24.13;58.15
17764;BME280;22245;52.832;13.816;2023-07-16T09:15:39;101053.88;;;24.18;58.05
17764;BME280;22245;52.832;13.816;2023-07-16T09:19:10;101063.06;;;24.17;58.43
17764;BME280;22245;52.832;13.816;2023-07-16T09:22:35;101056.38;;;24.19;57.67
17764;BME280;22245;52.832;13.816;2023-07-16T09:25:58;101064.09;;;24.29;58.22
17764;BME280;22245;52.832;13.816;2023-07-16T09:29:20;101054.81;;;24.43;56.30
17764;BME280;22245;52.832;13.816;2023-07-16T09:32:42;101049.13;;;24.52;55.60
17764;BME280;22245;52.832;13.816;2023-07-16T09:36:06;101061.47;;;24.54;55.62
17764;BME280;22245;52.832;13.816;2023-07-16T09:39:29;101071.25;;;24.62;55.77
17764;BME280;22245;52.832;13.816;2023-07-16T09:42:54;101062.69;;;24.65;53.68
17764;BME280;22245;52.832;13.816;2023-07-16T09:46:17;101061.41;;;24.75;54.77
17764;BME280;22245;52.832;13.816;2023-07-16T09:49:39;101063.44;;;24.86;53.84
17764;BME280;22245;52.832;13.816;2023-07-16T09:53:01;101062.34;;;24.94;52.34
17764;BME280;22245;52.832;13.816;2023-07-16T09:56:29;101062.34;;;24.94;52.88
17764;BME280;22245;52.832;13.816;2023-07-16T09:59:53;101065.44;;;24.97;54.69
17764;BME280;22245;52.832;13.816;2023-07-16T10:03:17;101069.81;;;25.05;53.12
17764;BME280;22245;52.832;13.816;2023-07-16T10:06:49;101073.38;;;25.06;52.22
17764;BME280;22245;52.832;13.816;2023-07-16T10:10:11;101076.75;;;25.01;52.22
17764;BME280;22245;52.832;13.816;2023-07-16T10:13:34;101063.56;;;24.98;52.24
17764;BME280;22245;52.832;13.816;2023-07-16T10:17:01;101067.75;;;25.00;51.13
17764;BME280;22245;52.832;13.816;2023-07-16T10:20:30;101067.94;;;25.06;51.79
17764;BME280;22245;52.832;13.816;2023-07-16T10:23:57;101054.47;;;25.11;51.77
17764;BME280;22245;52.832;13.816;2023-07-16T10:27:30;101066.81;;;25.13;51.47
17764;BME280;22245;52.832;13.816;2023-07-16T10:30:53;101076.44;;;25.16;50.09
17764;BME280;22245;52.832;13.816;2023-07-16T10:34:15;101073.69;;;25.23;50.73
17764;BME280;22245;52.832;13.816;2023-07-16T10:37:39;101070.09;;;25.22;49.33
17764;BME280;22245;52.832;13.816;2023-07-16T10:41:01;101076.78;;;25.26;49.47
17764;BME280;22245;52.832;13.816;2023-07-16T10:44:22;101077.47;;;25.22;49.43
17764;BME280;22245;52.832;13.816;2023-07-16T10:47:53;101088.38;;;25.22;48.34
17764;BME280;22245;52.832;13.816;2023-07-16T10:51:15;101094.59;;;25.29;47.16
17764;BME280;22245;52.832;13.816;2023-07-16T10:54:39;101083.63;;;25.36;46.33
17764;BME280;22245;52.832;13.816;2023-07-16T10:58:04;101086.91;;;25.44;45.80
17764;BME280;22245;52.832;13.816;2023-07-16T11:01:28;101095.28;;;25.50;46.21
17764;BME280;22245;52.832;13.816;2023-07-16T11:04:52;101096.13;;;25.50;45.79
17764;BME280;22245;52.832;13.816;2023-07-16T11:08:21;101091.13;;;25.47;45.13
17764;BME280;22245;52.832;13.816;2023-07-16T11:11:43;101085.25;;;25.43;43.85
17764;BME280;22245;52.832;13.816;2023-07-16T11:15:06;101082.75;;;25.42;44.74
17764;BME280;22245;52.832;13.816;2023-07-16T11:18:28;101082.31;;;25.45;45.09
17764;BME280;22245;52.832;13.816;2023-07-16T11:21:52;101086.28;;;25.49;44.88
17764;BME280;22245;52.832;13.816;2023-07-16T11:25:14;101081.41;;;25.58;45.25
17764;BME280;22245;52.832;13.816;2023-07-16T11:28:37;101093.00;;;25.72;44.60
17764;BME280;22245;52.832;13.816;2023-07-16T11:31:59;101088.78;;;25.76;42.60
17764;BME280;22245;52.832;13.816;2023-07-16T11:35:21;101092.13;;;25.78;43.97
17764;BME280;22245;52.832;13.816;2023-07-16T11:38:44;101085.78;;;25.84;43.91
17764;BME280;22245;52.832;13.816;2023-07-16T11:42:06;101097.59;;;25.97;43.37
17764;BME280;22245;52.832;13.816;2023-07-16T11:45:27;101090.63;;;26.01;43.73
17764;BME280;22245;52.832;13.816;2023-07-16T11:48:49;101094.34;;;26.07;43.03
17764;BME280;22245;52.832;13.816;2023-07-16T11:52:10;101100.03;;;26.05;41.92
17764;BME280;22245;52.832;13.816;2023-07-16T11:55:34;101100.72;;;26.00;42.05
17764;BME280;22245;52.832;13.816;2023-07-16T11:58:55;101094.72;;;26.10;43.82
17764;BME280;22245;52.832;13.816;2023-07-16T12:02:17;101095.28;;;26.19;42.88
17764;BME280;22245;52.832;13.816;2023-07-16T12:05:39;101096.91;;;26.27;43.06
17764;BME280;22245;52.832;13.816;2023-07-16T12:09:13;101092.56;;;26.38;41.91
17764;BME280;22245;52.832;13.816;2023-07-16T12:12:36;101088.69;;;26.46;42.30
17764;BME280;22245;52.832;13.816;2023-07-16T12:15:58;101088.81;;;26.51;41.91
17764;BME280;22245;52.832;13.816;2023-07-16T12:19:20;101106.44;;;26.55;41.95
17764;BME280;22245;52.832;13.816;2023-07-16T12:22:42;101101.44;;;26.52;42.34
17764;BME280;22245;52.832;13.816;2023-07-16T12:26:04;101102.72;;;26.49;41.03
17764;BME280;22245;52.832;13.816;2023-07-16T12:29:27;101096.88;;;26.46;40.37
17764;BME280;22245;52.832;13.816;2023-07-16T12:32:49;101097.78;;;26.39;41.39
17764;BME280;22245;52.832;13.816;2023-07-16T12:36:11;101095.66;;;26.41;41.46
17764;BME280;22245;52.832;13.816;2023-07-16T12:39:33;101101.88;;;26.49;41.58
17764;BME280;22245;52.832;13.816;2023-07-16T12:42:55;101101.78;;;26.55;40.74
17764;BME280;22245;52.832;13.816;2023-07-16T12:46:18;101094.44;;;26.56;41.04
17764;BME280;22245;52.832;13.816;2023-07-16T12:49:40;101097.53;;;26.59;41.23
17764;BME280;22245;52.832;13.816;2023-07-16T12:53:02;101098.66;;;26.70;42.32
17764;BME280;22245;52.832;13.816;2023-07-16T12:56:24;101100.59;;;26.82;42.06
17764;BME280;22245;52.832;13.816;2023-07-16T12:59:45;101111.53;;;26.82;41.00
17764;BME280;22245;52.832;13.816;2023-07-16T13:03:08;101106.50;;;26.85;41.25
17764;BME280;22245;52.832;13.816;2023-07-16T13:06:32;101094.63;;;26.92;41.13
17764;BME280;22245;52.832;13.816;2023-07-16T13:09:54;101099.41;;;26.96;42.38
17764;BME280;22245;52.832;13.816;2023-07-16T13:13:31;101104.75;;;27.03;40.54
17764;BME280;22245;52.832;13.816;2023-07-16T13:16:53;101107.59;;;26.96;41.04
17764;BME280;22245;52.832;13.816;2023-07-16T13:20:17;101113.38;;;26.88;41.33
17764;BME280;22245;52.832;13.816;2023-07-16T13:23:40;101101.25;;;26.84;41.92
17764;BME280;22245;52.832;13.816;2023-07-16T13:27:02;101116.25;;;26.75;40.84
17764;BME280;22245;52.832;13.816;2023-07-16T13:30:24;101106.25;;;26.68;39.70
17764;BME280;22245;52.832;13.816;2023-07-16T13:33:46;101111.25;;;26.71;41.33
17764;BME280;22245;52.832;13.816;2023-07-16T13:37:10;101117.56;;;26.72;39.57
17764;BME280;22245;52.832;13.816;2023-07-16T13:40:32;101114.00;;;26.71;40.64
17764;BME280;22245;52.832;13.816;2023-07-16T13:43:53;101104.88;;;26.78;39.33
17764;BME280;22245;52.832;13.816;2023-07-16T13:47:15;101126.59;;;26.91;39.05
17764;BME280;22245;52.832;13.816;2023-07-16T13:50:37;101122.63;;;26.87;37.50
17764;BME280;22245;52.832;13.816;2023-07-16T13:54:00;101134.63;;;26.86;38.50
17764;BME280;22245;52.832;13.816;2023-07-16T13:57:22;101127.19;;;26.93;37.29
17764;BME280;22245;52.832;13.816;2023-07-16T14:00:44;101127.47;;;27.04;35.80
17764;BME280;22245;52.832;13.816;2023-07-16T14:04:06;101139.94;;;26.99;34.54
17764;BME280;22245;52.832;13.816;2023-07-16T14:07:30;101125.66;;;26.97;34.69
17764;BME280;22245;52.832;13.816;2023-07-16T14:10:53;101139.00;;;27.06;35.52
17764;BME280;22245;52.832;13.816;2023-07-16T14:14:15;101140.94;;;27.17;34.45
17764;BME280;22245;52.832;13.816;2023-07-16T14:17:37;101139.69;;;27.32;32.73
17764;BME280;22245;52.832;13.816;2023-07-16T14:20:59;101140.41;;;27.39;33.16
17764;BME280;22245;52.832;13.816;2023-07-16T14:24:23;101141.72;;;27.48;32.60
17764;BME280;22245;52.832;13.816;2023-07-16T14:27:46;101139.75;;;27.55;32.18
17764;BME280;22245;52.832;13.816;2023-07-16T14:31:07;101138.47;;;27.70;33.27
17764;BME280;22245;52.832;13.816;2023-07-16T14:34:29;101145.97;;;27.74;31.79
17764;BME280;22245;52.832;13.816;2023-07-16T14:37:51;101153.44;;;27.67;30.61
17764;BME280;22245;52.832;13.816;2023-07-16T14:41:13;101144.06;;;27.63;31.69
17764;BME280;22245;52.832;13.816;2023-07-16T14:44:36;101155.22;;;27.62;31.49
17764;BME280;22245;52.832;13.816;2023-07-16T14:47:58;101169.38;;;27.58;31.66
17764;BME280;22245;52.832;13.816;2023-07-16T14:51:19;101152.94;;;27.58;32.26
17764;BME280;22245;52.832;13.816;2023-07-16T14:54:41;101147.75;;;27.69;32.57
17764;BME280;22245;52.832;13.816;2023-07-16T14:58:02;101153.47;;;27.79;32.50
17764;BME280;22245;52.832;13.816;2023-07-16T15:01:26;101144.66;;;27.77;32.23
17764;BME280;22245;52.832;13.816;2023-07-16T15:04:48;101145.84;;;27.81;32.61
17764;BME280;22245;52.832;13.816;2023-07-16T15:08:10;101143.59;;;27.90;31.55
17764;BME280;22245;52.832;13.816;2023-07-16T15:11:32;101147.28;;;28.08;32.85
17764;BME280;22245;52.832;13.816;2023-07-16T15:14:54;101154.34;;;28.15;31.82
17764;BME280;22245;52.832;13.816;2023-07-16T15:18:18;101138.25;;;28.07;31.48
17764;BME280;22245;52.832;13.816;2023-07-16T15:21:39;101151.44;;;27.98;31.26
17764;BME280;22245;52.832;13.816;2023-07-16T15:25:01;101136.56;;;27.94;30.67
17764;BME280;22245;52.832;13.816;2023-07-16T15:28:24;101133.69;;;28.13;30.98
17764;BME280;22245;52.832;13.816;2023-07-16T15:31:46;101135.38;;;28.38;30.56
17764;BME280;22245;52.832;13.816;2023-07-16T15:35:09;101145.63;;;28.71;29.22
17764;BME280;22245;52.832;13.816;2023-07-16T15:38:31;101134.53;;;28.90;29.49
17764;BME280;22245;52.832;13.816;2023-07-16T15:41:55;101147.97;;;28.92;29.76
17764;BME280;22245;52.832;13.816;2023-07-16T15:45:16;101143.56;;;28.91;29.10
17764;BME280;22245;52.832;13.816;2023-07-16T15:48:38;101148.28;;;28.78;29.56
17764;BME280;22245;52.832;13.816;2023-07-16T15:52:04;101149.53;;;28.75;29.69
17764;BME280;22245;52.832;13.816;2023-07-16T15:55:26;101149.00;;;29.02;29.56
17764;BME280;22245;52.832;13.816;2023-07-16T15:58:47;101144.50;;;29.25;29.68
17764;BME280;22245;52.832;13.816;2023-07-16T16:02:09;101130.72;;;29.54;28.50
17764;BME280;22245;52.832;13.816;2023-07-16T16:05:31;101140.13;;;29.75;28.51
17764;BME280;22245;52.832;13.816;2023-07-16T16:08:54;101125.63;;;29.97;28.47
17764;BME280;22245;52.832;13.816;2023-07-16T16:12:16;101152.78;;;29.77;27.50
17764;BME280;22245;52.832;13.816;2023-07-16T16:15:38;101147.59;;;29.46;27.73
17764;BME280;22245;52.832;13.816;2023-07-16T16:19:00;101155.59;;;29.65;28.74
17764;BME280;22245;52.832;13.816;2023-07-16T16:22:22;101162.41;;;29.79;26.94
17764;BME280;22245;52.832;13.816;2023-07-16T16:25:45;101159.75;;;30.01;27.22
17764;BME280;22245;52.832;13.816;2023-07-16T16:29:08;101154.44;;;29.95;26.41
17764;BME280;22245;52.832;13.816;2023-07-16T16:32:30;101164.91;;;29.98;27.42
17764;BME280;22245;52.832;13.816;2023-07-16T16:35:52;101162.75;;;30.17;27.32
17764;BME280;22245;52.832;13.816;2023-07-16T16:39:15;101162.50;;;30.41;28.42
17764;BME280;22245;52.832;13.816;2023-07-16T16:42:38;101166.75;;;30.71;27.52
17764;BME280;22245;52.832;13.816;2023-07-16T16:46:01;101174.41;;;30.91;26.43
17764;BME280;22245;52.832;13.816;2023-07-16T16:49:23;101167.72;;;31.09;27.48
17764;BME280;22245;52.832;13.816;2023-07-16T16:52:45;101180.38;;;31.10;26.56
17764;BME280;22245;52.832;13.816;2023-07-16T16:56:07;101179.31;;;30.89;25.16
17764;BME280;22245;52.832;13.816;2023-07-16T16:59:30;101165.00;;;30.87;26.77
17764;BME280;22245;52.832;13.816;2023-07-16T17:02:53;101175.06;;;31.03;25.79
17764;BME280;22245;52.832;13.816;2023-07-16T17:06:15;101170.91;;;31.23;25.35
17764;BME280;22245;52.832;13.816;2023-07-16T17:09:37;101178.31;;;31.50;25.37
17764;BME280;22245;52.832;13.816;2023-07-16T17:12:58;101173.88;;;31.76;25.55
17764;BME280;22245;52.832;13.816;2023-07-16T17:16:21;101173.06;;;31.81;25.11
17764;BME280;22245;52.832;13.816;2023-07-16T17:19:46;101180.88;;;31.62;24.41
17764;BME280;22245;52.832;13.816;2023-07-16T17:23:09;101177.03;;;31.63;25.13
17764;BME280;22245;52.832;13.816;2023-07-16T17:26:31;101189.63;;;31.54;24.79